sensor_id;sensor_type;location;lat;lon;timestamp;P1;durP1;ratioP1;P2;durP2;ratioP2
20080;SDS011;10200;49.232;9.222;2023-09-07T00:00:29;4.43;;;3.60;;
20080;SDS011;10200;49.232;9.222;2023-09-07T00:02:55;6.65;;;3.35;;
20080;SDS011;10200;49.232;9.222;2023-09-07T00:05:20;6.97;;;3.63;;
20080;SDS011;10200;49.232;9.222;2023-09-07T00:07:46;3.20;;;2.90;;
20080;SDS011;10200;49.232;9.222;2023-09-07T00:10:12;6.65;;;3.50;;
20080;SDS011;10200;49.232;9.222;2023-09-07T00:12:37;4.15;;;3.75;;
20080;SDS011;10200;49.232;9.222;2023-09-07T00:15:04;4.63;;;3.80;;
20080;SDS011;10200;49.232;9.222;2023-09-07T00:17:31;6.03;;;3.50;;
20080;SDS011;10200;49.232;9.222;2023-09-07T00:19:57;11.35;;;3.30;;
20080;SDS011;10200;49.232;9.222;2023-09-07T00:22:23;4.32;;;3.22;;
20080;SDS011;10200;49.232;9.222;2023-09-07T00:24:50;4.82;;;3.30;;
20080;SDS011;10200;49.232;9.222;2023-09-07T00:27:16;7.78;;;3.60;;
20080;SDS011;10200;49.232;9.222;2023-09-07T00:29:41;7.28;;;3.40;;
20080;SDS011;10200;49.232;9.222;2023-09-07T00:32:07;6.20;;;3.53;;
20080;SDS011;10200;49.232;9.222;2023-09-07T00:34:34;5.68;;;3.17;;
20080;SDS011;10200;49.232;9.222;2023-09-07T00:37:00;4.15;;;3.03;;
20080;SDS011;10200;49.232;9.222;2023-09-07T00:39:25;6.07;;;3.45;;
20080;SDS011;10200;49.232;9.222;2023-09-07T00:41:51;8.55;;;3.40;;
20080;SDS011;10200;49.232;9.222;2023-09-07T00:44:17;5.13;;;3.03;;
20080;SDS011;10200;49.232;9.222;2023-09-07T00:46:42;4.30;;;3.40;;
20080;SDS011;10200;49.232;9.222;2023-09-07T00:49:11;8.73;;;3.67;;
20080;SDS011;10200;49.232;9.222;2023-09-07T00:51:37;4.63;;;3.50;;
20080;SDS011;10200;49.232;9.222;2023-09-07T00:54:03;7.57;;;3.90;;
20080;SDS011;10200;49.232;9.222;2023-09-07T00:56:29;3.38;;;3.05;;
20080;SDS011;10200;49.232;9.222;2023-09-07T00:58:54;4.85;;;3.47;;
20080;SDS011;10200;49.232;9.222;2023-09-07T01:01:24;5.85;;;3.30;;
20080;SDS011;10200;49.232;9.222;2023-09-07T01:03:50;3.55;;;3.25;;
20080;SDS011;10200;49.232;9.222;2023-09-07T01:06:18;4.60;;;3.58;;
20080;SDS011;10200;49.232;9.222;2023-09-07T01:08:55;4.38;;;3.35;;
20080;SDS011;10200;49.232;9.222;2023-09-07T01:11:22;7.78;;;4.22;;
20080;SDS011;10200;49.232;9.222;2023-09-07T01:13:48;4.78;;;3.00;;
20080;SDS011;10200;49.232;9.222;2023-09-07T01:16:15;4.55;;;3.58;;
20080;SDS011;10200;49.232;9.222;2023-09-07T01:18:41;5.30;;;3.45;;
20080;SDS011;10200;49.232;9.222;2023-09-07T01:21:07;3.90;;;3.45;;
20080;SDS011;10200;49.232;9.222;2023-09-07T01:23:37;3.75;;;3.35;;
20080;SDS011;10200;49.232;9.222;2023-09-07T01:26:05;5.60;;;3.97;;
20080;SDS011;10200;49.232;9.222;2023-09-07T01:28:32;4.93;;;3.88;;
20080;SDS011;10200;49.232;9.222;2023-09-07T01:30:58;5.95;;;4.35;;
20080;SDS011;10200;49.232;9.222;2023-09-07T01:33:23;4.00;;;3.42;;
20080;SDS011;10200;49.232;9.222;2023-09-07T01:35:49;4.53;;;3.42;;
20080;SDS011;10200;49.232;9.222;2023-09-07T01:38:15;4.70;;;3.38;;
20080;SDS011;10200;49.232;9.222;2023-09-07T01:40:40;5.10;;;3.13;;
20080;SDS011;10200;49.232;9.222;2023-09-07T01:43:06;5.25;;;3.60;;
20080;SDS011;10200;49.232;9.222;2023-09-07T01:45:31;4.20;;;3.42;;
20080;SDS011;10200;49.232;9.222;2023-09-07T01:47:58;7.10;;;3.85;;
20080;SDS011;10200;49.232;9.222;2023-09-07T01:50:24;7.13;;;3.20;;
20080;SDS011;10200;49.232;9.222;2023-09-07T01:52:53;6.75;;;3.58;;
20080;SDS011;10200;49.232;9.222;2023-09-07T01:55:18;5.73;;;3.80;;
20080;SDS011;10200;49.232;9.222;2023-09-07T01:57:44;4.13;;;3.72;;
20080;SDS011;10200;49.232;9.222;2023-09-07T02:00:10;3.75;;;3.38;;
20080;SDS011;10200;49.232;9.222;2023-09-07T02:02:36;4.00;;;3.10;;
20080;SDS011;10200;49.232;9.222;2023-09-07T02:05:02;4.82;;;3.83;;
20080;SDS011;10200;49.232;9.222;2023-09-07T02:07:29;4.57;;;3.30;;
20080;SDS011;10200;49.232;9.222;2023-09-07T02:09:54;9.40;;;3.90;;
20080;SDS011;10200;49.232;9.222;2023-09-07T02:12:20;5.47;;;3.67;;
20080;SDS011;10200;49.232;9.222;2023-09-07T02:14:46;4.65;;;3.67;;
20080;SDS011;10200;49.232;9.222;2023-09-07T02:17:11;5.47;;;3.37;;
20080;SDS011;10200;49.232;9.222;2023-09-07T02:19:42;3.95;;;3.55;;
20080;SDS011;10200;49.232;9.222;2023-09-07T02:22:08;4.60;;;3.13;;
20080;SDS011;10200;49.232;9.222;2023-09-07T02:24:34;4.68;;;3.38;;
20080;SDS011;10200;49.232;9.222;2023-09-07T02:26:59;8.43;;;3.70;;
20080;SDS011;10200;49.232;9.222;2023-09-07T02:29:25;3.87;;;3.30;;
20080;SDS011;10200;49.232;9.222;2023-09-07T02:31:51;5.17;;;3.73;;
20080;SDS011;10200;49.232;9.222;2023-09-07T02:34:17;5.43;;;3.60;;
20080;SDS011;10200;49.232;9.222;2023-09-07T02:36:43;6.03;;;3.23;;
20080;SDS011;10200;49.232;9.222;2023-09-07T02:39:08;4.13;;;3.70;;
20080;SDS011;10200;49.232;9.222;2023-09-07T02:41:36;7.77;;;3.67;;
20080;SDS011;10200;49.232;9.222;2023-09-07T02:44:02;4.87;;;3.57;;
20080;SDS011;10200;49.232;9.222;2023-09-07T02:46:28;9.10;;;4.23;;
20080;SDS011;10200;49.232;9.222;2023-09-07T02:48:53;4.77;;;3.57;;
20080;SDS011;10200;49.232;9.222;2023-09-07T02:51:22;3.60;;;3.10;;
20080;SDS011;10200;49.232;9.222;2023-09-07T02:53:47;4.90;;;3.13;;
20080;SDS011;10200;49.232;9.222;2023-09-07T02:56:14;5.30;;;3.67;;
20080;SDS011;10200;49.232;9.222;2023-09-07T02:58:40;3.80;;;3.27;;
20080;SDS011;10200;49.232;9.222;2023-09-07T03:01:06;5.77;;;3.30;;
20080;SDS011;10200;49.232;9.222;2023-09-07T03:03:35;3.30;;;2.97;;
20080;SDS011;10200;49.232;9.222;2023-09-07T03:06:34;5.80;;;3.45;;
20080;SDS011;10200;49.232;9.222;2023-09-07T03:08:53;4.07;;;3.50;;
20080;SDS011;10200;49.232;9.222;2023-09-07T03:11:18;4.03;;;3.40;;
20080;SDS011;10200;49.232;9.222;2023-09-07T03:13:44;5.30;;;3.47;;
20080;SDS011;10200;49.232;9.222;2023-09-07T03:16:10;4.10;;;3.33;;
20080;SDS011;10200;49.232;9.222;2023-09-07T03:18:35;5.20;;;3.30;;
20080;SDS011;10200;49.232;9.222;2023-09-07T03:21:01;4.30;;;3.33;;
20080;SDS011;10200;49.232;9.222;2023-09-07T03:23:31;3.87;;;3.47;;
20080;SDS011;10200;49.232;9.222;2023-09-07T03:25:58;4.50;;;3.90;;
20080;SDS011;10200;49.232;9.222;2023-09-07T03:28:24;4.53;;;3.63;;
20080;SDS011;10200;49.232;9.222;2023-09-07T03:30:53;4.77;;;3.20;;
20080;SDS011;10200;49.232;9.222;2023-09-07T03:33:19;3.70;;;3.30;;
20080;SDS011;10200;49.232;9.222;2023-09-07T03:35:45;3.33;;;3.00;;
20080;SDS011;10200;49.232;9.222;2023-09-07T03:38:10;7.63;;;3.83;;
20080;SDS011;10200;49.232;9.222;2023-09-07T03:40:36;4.07;;;3.67;;
20080;SDS011;10200;49.232;9.222;2023-09-07T03:43:02;4.43;;;3.77;;
20080;SDS011;10200;49.232;9.222;2023-09-07T03:45:27;4.13;;;3.60;;
20080;SDS011;10200;49.232;9.222;2023-09-07T03:47:53;5.80;;;3.57;;
20080;SDS011;10200;49.232;9.222;2023-09-07T03:50:18;5.13;;;3.50;;
20080;SDS011;10200;49.232;9.222;2023-09-07T03:52:44;7.53;;;3.40;;
20080;SDS011;10200;49.232;9.222;2023-09-07T03:55:09;5.73;;;3.30;;
20080;SDS011;10200;49.232;9.222;2023-09-07T03:57:35;3.87;;;3.30;;
20080;SDS011;10200;49.232;9.222;2023-09-07T04:00:01;4.57;;;3.67;;
20080;SDS011;10200;49.232;9.222;2023-09-07T04:02:32;4.30;;;3.90;;
20080;SDS011;10200;49.232;9.222;2023-09-07T04:04:57;8.70;;;5.23;;
20080;SDS011;10200;49.232;9.222;2023-09-07T04:07:23;4.67;;;3.57;;
20080;SDS011;10200;49.232;9.222;2023-09-07T04:09:50;4.20;;;3.30;;
20080;SDS011;10200;49.232;9.222;2023-09-07T04:12:15;5.17;;;3.93;;
20080;SDS011;10200;49.232;9.222;2023-09-07T04:14:41;4.27;;;3.70;;
20080;SDS011;10200;49.232;9.222;2023-09-07T04:17:07;3.93;;;3.53;;
20080;SDS011;10200;49.232;9.222;2023-09-07T04:19:33;4.37;;;3.90;;
20080;SDS011;10200;49.232;9.222;2023-09-07T04:21:58;5.50;;;3.57;;
20080;SDS011;10200;49.232;9.222;2023-09-07T04:24:25;7.63;;;3.80;;
20080;SDS011;10200;49.232;9.222;2023-09-07T04:26:52;6.33;;;4.10;;
20080;SDS011;10200;49.232;9.222;2023-09-07T04:29:18;7.43;;;3.80;;
20080;SDS011;10200;49.232;9.222;2023-09-07T04:31:43;4.77;;;3.70;;
20080;SDS011;10200;49.232;9.222;2023-09-07T04:34:09;7.47;;;4.00;;
20080;SDS011;10200;49.232;9.222;2023-09-07T04:36:34;4.87;;;3.20;;
20080;SDS011;10200;49.232;9.222;2023-09-07T04:39:00;5.60;;;3.70;;
20080;SDS011;10200;49.232;9.222;2023-09-07T04:41:28;4.30;;;3.83;;
20080;SDS011;10200;49.232;9.222;2023-09-07T04:43:54;6.40;;;3.93;;
20080;SDS011;10200;49.232;9.222;2023-09-07T04:46:21;4.97;;;4.47;;
20080;SDS011;10200;49.232;9.222;2023-09-07T04:48:47;4.90;;;4.40;;
20080;SDS011;10200;49.232;9.222;2023-09-07T04:51:12;7.07;;;3.93;;
20080;SDS011;10200;49.232;9.222;2023-09-07T04:53:38;5.10;;;3.90;;
20080;SDS011;10200;49.232;9.222;2023-09-07T04:56:04;4.97;;;4.37;;
20080;SDS011;10200;49.232;9.222;2023-09-07T04:58:31;4.70;;;3.43;;
20080;SDS011;10200;49.232;9.222;2023-09-07T05:01:04;4.23;;;3.40;;
20080;SDS011;10200;49.232;9.222;2023-09-07T05:03:30;4.50;;;3.70;;
20080;SDS011;10200;49.232;9.222;2023-09-07T05:05:56;5.67;;;3.33;;
20080;SDS011;10200;49.232;9.222;2023-09-07T05:08:22;5.27;;;4.07;;
20080;SDS011;10200;49.232;9.222;2023-09-07T05:10:54;8.50;;;3.83;;
20080;SDS011;10200;49.232;9.222;2023-09-07T05:13:23;5.27;;;3.07;;
20080;SDS011;10200;49.232;9.222;2023-09-07T05:15:50;5.17;;;4.03;;
20080;SDS011;10200;49.232;9.222;2023-09-07T05:18:17;3.93;;;3.53;;
20080;SDS011;10200;49.232;9.222;2023-09-07T05:20:44;3.90;;;3.43;;
20080;SDS011;10200;49.232;9.222;2023-09-07T05:23:13;5.10;;;3.97;;
20080;SDS011;10200;49.232;9.222;2023-09-07T05:25:44;5.93;;;3.47;;
20080;SDS011;10200;49.232;9.222;2023-09-07T05:28:10;3.37;;;3.00;;
20080;SDS011;10200;49.232;9.222;2023-09-07T05:30:37;4.10;;;3.22;;
20080;SDS011;10200;49.232;9.222;2023-09-07T05:33:03;3.65;;;3.20;;
20080;SDS011;10200;49.232;9.222;2023-09-07T05:35:28;6.13;;;2.97;;
20080;SDS011;10200;49.232;9.222;2023-09-07T05:37:57;3.60;;;2.47;;
20080;SDS011;10200;49.232;9.222;2023-09-07T05:40:24;4.30;;;2.47;;
20080;SDS011;10200;49.232;9.222;2023-09-07T05:42:50;3.35;;;2.90;;
20080;SDS011;10200;49.232;9.222;2023-09-07T05:45:15;4.30;;;2.50;;
20080;SDS011;10200;49.232;9.222;2023-09-07T05:47:41;2.63;;;2.40;;
20080;SDS011;10200;49.232;9.222;2023-09-07T05:50:06;3.53;;;2.95;;
20080;SDS011;10200;49.232;9.222;2023-09-07T05:52:32;2.88;;;2.33;;
20080;SDS011;10200;49.232;9.222;2023-09-07T05:54:58;6.30;;;2.60;;
20080;SDS011;10200;49.232;9.222;2023-09-07T05:57:24;5.45;;;3.00;;
20080;SDS011;10200;49.232;9.222;2023-09-07T05:59:49;5.95;;;2.78;;
20080;SDS011;10200;49.232;9.222;2023-09-07T06:02:15;4.05;;;2.72;;
20080;SDS011;10200;49.232;9.222;2023-09-07T06:04:41;4.55;;;2.78;;
20080;SDS011;10200;49.232;9.222;2023-09-07T06:07:07;2.75;;;2.42;;
20080;SDS011;10200;49.232;9.222;2023-09-07T06:09:33;5.55;;;2.50;;
20080;SDS011;10200;49.232;9.222;2023-09-07T06:12:00;6.18;;;2.75;;
20080;SDS011;10200;49.232;9.222;2023-09-07T06:14:28;3.65;;;2.80;;
20080;SDS011;10200;49.232;9.222;2023-09-07T06:16:54;2.95;;;2.55;;
20080;SDS011;10200;49.232;9.222;2023-09-07T06:19:19;3.85;;;2.53;;
20080;SDS011;10200;49.232;9.222;2023-09-07T06:21:45;3.55;;;2.58;;
20080;SDS011;10200;49.232;9.222;2023-09-07T06:24:10;5.72;;;3.10;;
20080;SDS011;10200;49.232;9.222;2023-09-07T06:26:36;2.85;;;2.63;;
20080;SDS011;10200;49.232;9.222;2023-09-07T06:29:02;4.20;;;2.72;;
20080;SDS011;10200;49.232;9.222;2023-09-07T06:31:27;4.75;;;2.78;;
20080;SDS011;10200;49.232;9.222;2023-09-07T06:33:54;3.38;;;3.08;;
20080;SDS011;10200;49.232;9.222;2023-09-07T06:36:19;5.13;;;3.15;;
20080;SDS011;10200;49.232;9.222;2023-09-07T06:38:45;3.28;;;2.80;;
20080;SDS011;10200;49.232;9.222;2023-09-07T06:41:10;2.95;;;2.65;;
20080;SDS011;10200;49.232;9.222;2023-09-07T06:43:37;3.15;;;2.85;;
20080;SDS011;10200;49.232;9.222;2023-09-07T06:46:05;3.75;;;3.17;;
20080;SDS011;10200;49.232;9.222;2023-09-07T06:48:32;3.10;;;2.90;;
20080;SDS011;10200;49.232;9.222;2023-09-07T06:51:05;6.10;;;2.75;;
20080;SDS011;10200;49.232;9.222;2023-09-07T06:53:31;3.72;;;2.90;;
20080;SDS011;10200;49.232;9.222;2023-09-07T06:55:57;3.97;;;2.60;;
20080;SDS011;10200;49.232;9.222;2023-09-07T06:58:23;4.00;;;3.13;;
20080;SDS011;10200;49.232;9.222;2023-09-07T07:00:49;4.30;;;3.33;;
20080;SDS011;10200;49.232;9.222;2023-09-07T07:03:15;6.07;;;3.15;;
20080;SDS011;10200;49.232;9.222;2023-09-07T07:05:40;6.47;;;3.50;;
20080;SDS011;10200;49.232;9.222;2023-09-07T07:08:07;5.00;;;2.95;;
20080;SDS011;10200;49.232;9.222;2023-09-07T07:10:33;4.80;;;2.85;;
20080;SDS011;10200;49.232;9.222;2023-09-07T07:12:58;3.58;;;2.85;;
20080;SDS011;10200;49.232;9.222;2023-09-07T07:15:25;3.90;;;2.80;;
20080;SDS011;10200;49.232;9.222;2023-09-07T07:17:50;3.45;;;3.13;;
20080;SDS011;10200;49.232;9.222;2023-09-07T07:20:16;6.03;;;2.75;;
20080;SDS011;10200;49.232;9.222;2023-09-07T07:22:41;4.80;;;2.70;;
20080;SDS011;10200;49.232;9.222;2023-09-07T07:25:07;5.03;;;2.72;;
20080;SDS011;10200;49.232;9.222;2023-09-07T07:27:33;5.03;;;2.72;;
20080;SDS011;10200;49.232;9.222;2023-09-07T07:29:58;4.50;;;2.92;;
20080;SDS011;10200;49.232;9.222;2023-09-07T07:32:24;4.20;;;3.40;;
20080;SDS011;10200;49.232;9.222;2023-09-07T07:34:50;5.85;;;3.13;;
20080;SDS011;10200;49.232;9.222;2023-09-07T07:37:15;3.67;;;3.08;;
20080;SDS011;10200;49.232;9.222;2023-09-07T07:39:41;3.25;;;2.95;;
20080;SDS011;10200;49.232;9.222;2023-09-07T07:42:07;5.07;;;3.00;;
20080;SDS011;10200;49.232;9.222;2023-09-07T07:44:32;6.30;;;2.90;;
20080;SDS011;10200;49.232;9.222;2023-09-07T07:46:58;3.35;;;2.90;;
20080;SDS011;10200;49.232;9.222;2023-09-07T07:49:23;5.53;;;3.00;;
20080;SDS011;10200;49.232;9.222;2023-09-07T07:51:49;6.55;;;3.00;;
20080;SDS011;10200;49.232;9.222;2023-09-07T07:54:16;5.03;;;2.80;;
20080;SDS011;10200;49.232;9.222;2023-09-07T07:56:41;3.80;;;2.90;;
20080;SDS011;10200;49.232;9.222;2023-09-07T07:59:07;3.17;;;2.88;;
20080;SDS011;10200;49.232;9.222;2023-09-07T08:01:33;6.05;;;2.70;;
20080;SDS011;10200;49.232;9.222;2023-09-07T08:03:58;3.42;;;2.88;;
20080;SDS011;10200;49.232;9.222;2023-09-07T08:06:24;3.15;;;2.85;;
20080;SDS011;10200;49.232;9.222;2023-09-07T08:08:49;3.60;;;2.65;;
20080;SDS011;10200;49.232;9.222;2023-09-07T08:11:15;4.20;;;3.00;;
20080;SDS011;10200;49.232;9.222;2023-09-07T08:13:41;4.57;;;3.08;;
20080;SDS011;10200;49.232;9.222;2023-09-07T08:16:10;3.83;;;2.75;;
20080;SDS011;10200;49.232;9.222;2023-09-07T08:18:36;7.68;;;2.83;;
20080;SDS011;10200;49.232;9.222;2023-09-07T08:21:01;4.75;;;2.88;;
20080;SDS011;10200;49.232;9.222;2023-09-07T08:23:27;3.25;;;2.92;;
20080;SDS011;10200;49.232;9.222;2023-09-07T08:25:54;4.05;;;2.60;;
20080;SDS011;10200;49.232;9.222;2023-09-07T08:28:19;3.00;;;2.42;;
20080;SDS011;10200;49.232;9.222;2023-09-07T08:30:48;5.22;;;3.10;;
20080;SDS011;10200;49.232;9.222;2023-09-07T08:33:15;4.00;;;3.22;;
20080;SDS011;10200;49.232;9.222;2023-09-07T08:35:42;4.57;;;2.70;;
20080;SDS011;10200;49.232;9.222;2023-09-07T08:38:12;7.90;;;3.28;;
20080;SDS011;10200;49.232;9.222;2023-09-07T08:40:38;6.75;;;2.88;;
20080;SDS011;10200;49.232;9.222;2023-09-07T08:43:05;3.53;;;2.78;;
20080;SDS011;10200;49.232;9.222;2023-09-07T08:45:37;4.07;;;2.58;;
20080;SDS011;10200;49.232;9.222;2023-09-07T08:48:07;4.20;;;3.50;;
20080;SDS011;10200;49.232;9.222;2023-09-07T08:50:35;5.72;;;3.20;;
20080;SDS011;10200;49.232;9.222;2023-09-07T08:53:03;4.10;;;2.95;;
20080;SDS011;10200;49.232;9.222;2023-09-07T08:55:29;3.72;;;2.90;;
20080;SDS011;10200;49.232;9.222;2023-09-07T08:57:55;4.63;;;2.80;;
20080;SDS011;10200;49.232;9.222;2023-09-07T09:00:21;2.90;;;2.60;;
20080;SDS011;10200;49.232;9.222;2023-09-07T09:02:48;6.30;;;3.60;;
20080;SDS011;10200;49.232;9.222;2023-09-07T09:05:14;4.80;;;3.17;;
20080;SDS011;10200;49.232;9.222;2023-09-07T09:07:44;5.05;;;2.80;;
20080;SDS011;10200;49.232;9.222;2023-09-07T09:10:10;3.63;;;3.33;;
20080;SDS011;10200;49.232;9.222;2023-09-07T09:12:35;6.15;;;2.50;;
20080;SDS011;10200;49.232;9.222;2023-09-07T09:15:09;5.18;;;3.30;;
20080;SDS011;10200;49.232;9.222;2023-09-07T09:17:35;4.93;;;3.05;;
20080;SDS011;10200;49.232;9.222;2023-09-07T09:20:00;6.30;;;3.33;;
20080;SDS011;10200;49.232;9.222;2023-09-07T09:22:26;4.30;;;2.88;;
20080;SDS011;10200;49.232;9.222;2023-09-07T09:24:51;2.97;;;2.72;;
20080;SDS011;10200;49.232;9.222;2023-09-07T09:27:17;3.70;;;2.78;;
20080;SDS011;10200;49.232;9.222;2023-09-07T09:29:43;4.40;;;3.17;;
20080;SDS011;10200;49.232;9.222;2023-09-07T09:32:09;5.75;;;2.67;;
20080;SDS011;10200;49.232;9.222;2023-09-07T09:34:38;4.63;;;2.95;;
20080;SDS011;10200;49.232;9.222;2023-09-07T09:37:04;4.07;;;2.78;;
20080;SDS011;10200;49.232;9.222;2023-09-07T09:39:37;5.97;;;3.15;;
20080;SDS011;10200;49.232;9.222;2023-09-07T09:42:03;4.65;;;2.97;;
20080;SDS011;10200;49.232;9.222;2023-09-07T09:44:29;8.02;;;3.20;;
20080;SDS011;10200;49.232;9.222;2023-09-07T09:46:55;4.75;;;2.83;;
20080;SDS011;10200;49.232;9.222;2023-09-07T09:49:22;3.38;;;2.95;;
20080;SDS011;10200;49.232;9.222;2023-09-07T09:51:49;5.35;;;2.85;;
20080;SDS011;10200;49.232;9.222;2023-09-07T09:54:17;3.42;;;2.88;;
20080;SDS011;10200;49.232;9.222;2023-09-07T09:56:43;4.22;;;2.92;;
20080;SDS011;10200;49.232;9.222;2023-09-07T09:59:10;3.20;;;2.90;;
20080;SDS011;10200;49.232;9.222;2023-09-07T10:01:44;6.22;;;3.15;;
20080;SDS011;10200;49.232;9.222;2023-09-07T10:04:13;4.97;;;2.88;;
20080;SDS011;10200;49.232;9.222;2023-09-07T10:06:55;3.83;;;3.03;;
20080;SDS011;10200;49.232;9.222;2023-09-07T10:09:23;3.25;;;2.80;;
20080;SDS011;10200;49.232;9.222;2023-09-07T10:11:52;4.25;;;2.80;;
20080;SDS011;10200;49.232;9.222;2023-09-07T10:14:19;4.45;;;2.90;;
20080;SDS011;10200;49.232;9.222;2023-09-07T10:19:20;5.43;;;3.47;;
20080;SDS011;10200;49.232;9.222;2023-09-07T10:21:47;3.90;;;3.03;;
20080;SDS011;10200;49.232;9.222;2023-09-07T10:24:29;3.92;;;2.78;;
20080;SDS011;10200;49.232;9.222;2023-09-07T10:27:01;4.72;;;3.47;;
20080;SDS011;10200;49.232;9.222;2023-09-07T10:29:41;3.00;;;2.75;;
20080;SDS011;10200;49.232;9.222;2023-09-07T10:32:08;4.20;;;2.65;;
20080;SDS011;10200;49.232;9.222;2023-09-07T10:34:37;5.10;;;2.65;;
20080;SDS011;10200;49.232;9.222;2023-09-07T10:37:09;4.22;;;2.85;;
20080;SDS011;10200;49.232;9.222;2023-09-07T10:39:39;3.28;;;2.90;;
20080;SDS011;10200;49.232;9.222;2023-09-07T10:42:08;7.75;;;2.97;;
20080;SDS011;10200;49.232;9.222;2023-09-07T10:44:44;3.10;;;2.80;;
20080;SDS011;10200;49.232;9.222;2023-09-07T10:47:10;3.85;;;2.88;;
20080;SDS011;10200;49.232;9.222;2023-09-07T10:49:35;4.63;;;3.00;;
20080;SDS011;10200;49.232;9.222;2023-09-07T10:52:01;3.60;;;2.97;;
20080;SDS011;10200;49.232;9.222;2023-09-07T10:54:29;3.92;;;3.20;;
20080;SDS011;10200;49.232;9.222;2023-09-07T10:56:54;3.80;;;2.47;;
20080;SDS011;10200;49.232;9.222;2023-09-07T10:59:23;2.90;;;2.70;;
20080;SDS011;10200;49.232;9.222;2023-09-07T11:01:52;3.30;;;2.67;;
20080;SDS011;10200;49.232;9.222;2023-09-07T11:04:18;4.45;;;3.28;;
20080;SDS011;10200;49.232;9.222;2023-09-07T11:06:45;3.30;;;2.53;;
20080;SDS011;10200;49.232;9.222;2023-09-07T11:09:11;4.93;;;2.90;;
20080;SDS011;10200;49.232;9.222;2023-09-07T11:11:37;9.02;;;3.08;;
20080;SDS011;10200;49.232;9.222;2023-09-07T11:14:03;3.20;;;2.85;;
20080;SDS011;10200;49.232;9.222;2023-09-07T11:16:29;3.22;;;2.92;;
20080;SDS011;10200;49.232;9.222;2023-09-07T11:18:56;5.47;;;2.70;;
20080;SDS011;10200;49.232;9.222;2023-09-07T11:21:22;4.57;;;2.60;;
20080;SDS011;10200;49.232;9.222;2023-09-07T11:23:48;4.22;;;2.72;;
20080;SDS011;10200;49.232;9.222;2023-09-07T11:26:15;4.28;;;3.10;;
20080;SDS011;10200;49.232;9.222;2023-09-07T11:28:44;6.05;;;2.50;;
20080;SDS011;10200;49.232;9.222;2023-09-07T11:31:11;4.85;;;3.08;;
20080;SDS011;10200;49.232;9.222;2023-09-07T11:33:37;3.08;;;2.53;;
20080;SDS011;10200;49.232;9.222;2023-09-07T11:36:03;3.13;;;2.83;;
20080;SDS011;10200;49.232;9.222;2023-09-07T11:38:30;3.75;;;2.45;;
20080;SDS011;10200;49.232;9.222;2023-09-07T11:41:01;3.20;;;2.90;;
20080;SDS011;10200;49.232;9.222;2023-09-07T11:43:26;4.40;;;2.90;;
20080;SDS011;10200;49.232;9.222;2023-09-07T11:45:52;2.80;;;2.38;;
20080;SDS011;10200;49.232;9.222;2023-09-07T11:48:17;2.60;;;2.35;;
20080;SDS011;10200;49.232;9.222;2023-09-07T11:50:43;5.18;;;2.95;;
20080;SDS011;10200;49.232;9.222;2023-09-07T11:53:09;3.53;;;2.83;;
20080;SDS011;10200;49.232;9.222;2023-09-07T11:55:35;2.53;;;2.20;;
20080;SDS011;10200;49.232;9.222;2023-09-07T11:58:01;2.30;;;2.10;;
20080;SDS011;10200;49.232;9.222;2023-09-07T12:00:27;2.80;;;2.50;;
20080;SDS011;10200;49.232;9.222;2023-09-07T12:02:56;4.70;;;2.40;;
20080;SDS011;10200;49.232;9.222;2023-09-07T12:05:21;3.50;;;2.70;;
20080;SDS011;10200;49.232;9.222;2023-09-07T12:07:47;4.75;;;2.88;;
20080;SDS011;10200;49.232;9.222;2023-09-07T12:10:12;3.30;;;2.42;;
20080;SDS011;10200;49.232;9.222;2023-09-07T12:12:39;5.68;;;2.72;;
20080;SDS011;10200;49.232;9.222;2023-09-07T12:15:05;4.35;;;2.22;;
20080;SDS011;10200;49.232;9.222;2023-09-07T12:17:32;2.60;;;2.30;;
20080;SDS011;10200;49.232;9.222;2023-09-07T12:19:58;3.00;;;2.40;;
20080;SDS011;10200;49.232;9.222;2023-09-07T12:22:26;4.03;;;2.70;;
20080;SDS011;10200;49.232;9.222;2023-09-07T12:24:52;3.53;;;2.10;;
20080;SDS011;10200;49.232;9.222;2023-09-07T12:27:18;4.38;;;2.38;;
20080;SDS011;10200;49.232;9.222;2023-09-07T12:29:44;3.20;;;2.47;;
20080;SDS011;10200;49.232;9.222;2023-09-07T12:32:10;4.00;;;2.03;;
20080;SDS011;10200;49.232;9.222;2023-09-07T12:34:36;7.45;;;2.53;;
20080;SDS011;10200;49.232;9.222;2023-09-07T12:37:02;3.63;;;2.40;;
20080;SDS011;10200;49.232;9.222;2023-09-07T12:39:30;3.22;;;2.38;;
20080;SDS011;10200;49.232;9.222;2023-09-07T12:41:57;5.43;;;2.53;;
20080;SDS011;10200;49.232;9.222;2023-09-07T12:44:22;3.85;;;2.50;;
20080;SDS011;10200;49.232;9.222;2023-09-07T12:46:48;3.03;;;2.72;;
20080;SDS011;10200;49.232;9.222;2023-09-07T12:49:14;3.50;;;2.50;;
20080;SDS011;10200;49.232;9.222;2023-09-07T12:51:41;3.45;;;2.90;;
20080;SDS011;10200;49.232;9.222;2023-09-07T12:54:07;5.95;;;2.70;;
20080;SDS011;10200;49.232;9.222;2023-09-07T12:56:33;4.53;;;2.58;;
20080;SDS011;10200;49.232;9.222;2023-09-07T12:58:59;6.43;;;2.88;;
20080;SDS011;10200;49.232;9.222;2023-09-07T13:01:25;3.78;;;3.15;;
20080;SDS011;10200;49.232;9.222;2023-09-07T13:03:51;5.28;;;2.75;;
20080;SDS011;10200;49.232;9.222;2023-09-07T13:06:16;3.70;;;2.70;;
20080;SDS011;10200;49.232;9.222;2023-09-07T13:08:43;5.35;;;2.70;;
20080;SDS011;10200;49.232;9.222;2023-09-07T13:11:10;4.25;;;2.75;;
20080;SDS011;10200;49.232;9.222;2023-09-07T13:13:36;3.17;;;2.90;;
20080;SDS011;10200;49.232;9.222;2023-09-07T13:16:02;4.95;;;2.50;;
20080;SDS011;10200;49.232;9.222;2023-09-07T13:18:27;2.88;;;2.53;;
20080;SDS011;10200;49.232;9.222;2023-09-07T13:20:53;3.60;;;2.97;;
20080;SDS011;10200;49.232;9.222;2023-09-07T13:23:24;3.63;;;2.90;;
20080;SDS011;10200;49.232;9.222;2023-09-07T13:25:51;3.67;;;2.58;;
20080;SDS011;10200;49.232;9.222;2023-09-07T13:28:17;3.78;;;2.70;;
20080;SDS011;10200;49.232;9.222;2023-09-07T13:30:43;5.32;;;2.67;;
20080;SDS011;10200;49.232;9.222;2023-09-07T13:33:08;3.10;;;2.58;;
20080;SDS011;10200;49.232;9.222;2023-09-07T13:35:34;7.22;;;3.53;;
20080;SDS011;10200;49.232;9.222;2023-09-07T13:38:00;2.83;;;2.30;;
20080;SDS011;10200;49.232;9.222;2023-09-07T13:40:25;5.57;;;2.97;;
20080;SDS011;10200;49.232;9.222;2023-09-07T13:42:54;4.22;;;3.22;;
20080;SDS011;10200;49.232;9.222;2023-09-07T13:45:21;3.53;;;2.45;;
20080;SDS011;10200;49.232;9.222;2023-09-07T13:47:47;3.70;;;2.78;;
20080;SDS011;10200;49.232;9.222;2023-09-07T13:50:13;4.57;;;2.47;;
20080;SDS011;10200;49.232;9.222;2023-09-07T13:52:39;3.67;;;2.75;;
20080;SDS011;10200;49.232;9.222;2023-09-07T13:55:04;3.40;;;2.63;;
20080;SDS011;10200;49.232;9.222;2023-09-07T13:57:30;5.95;;;2.63;;
20080;SDS011;10200;49.232;9.222;2023-09-07T13:59:57;3.03;;;2.70;;
20080;SDS011;10200;49.232;9.222;2023-09-07T14:02:23;5.85;;;2.97;;
20080;SDS011;10200;49.232;9.222;2023-09-07T14:04:48;4.28;;;2.63;;
20080;SDS011;10200;49.232;9.222;2023-09-07T14:07:14;3.30;;;2.72;;
20080;SDS011;10200;49.232;9.222;2023-09-07T14:09:40;6.10;;;2.85;;
20080;SDS011;10200;49.232;9.222;2023-09-07T14:12:06;6.45;;;2.65;;
20080;SDS011;10200;49.232;9.222;2023-09-07T14:14:32;3.53;;;3.22;;
20080;SDS011;10200;49.232;9.222;2023-09-07T14:16:58;3.80;;;2.90;;
20080;SDS011;10200;49.232;9.222;2023-09-07T14:19:25;3.00;;;2.72;;
20080;SDS011;10200;49.232;9.222;2023-09-07T14:21:55;5.82;;;2.95;;
20080;SDS011;10200;49.232;9.222;2023-09-07T14:24:22;4.47;;;2.22;;
20080;SDS011;10200;49.232;9.222;2023-09-07T14:26:48;2.63;;;2.38;;
20080;SDS011;10200;49.232;9.222;2023-09-07T14:29:13;5.30;;;2.72;;
20080;SDS011;10200;49.232;9.222;2023-09-07T14:31:39;4.60;;;2.67;;
20080;SDS011;10200;49.232;9.222;2023-09-07T14:34:07;3.85;;;2.90;;
20080;SDS011;10200;49.232;9.222;2023-09-07T14:36:33;3.72;;;3.33;;
20080;SDS011;10200;49.232;9.222;2023-09-07T14:38:58;6.10;;;2.60;;
20080;SDS011;10200;49.232;9.222;2023-09-07T14:41:25;4.30;;;2.47;;
20080;SDS011;10200;49.232;9.222;2023-09-07T14:43:51;5.78;;;3.38;;
20080;SDS011;10200;49.232;9.222;2023-09-07T14:46:17;3.42;;;2.80;;